createdAt,value
2024-01-31T00:00:18.173Z,969.54
2024-01-31T00:02:44.532Z,969.61
2024-01-31T00:05:11.218Z,969.59
2024-01-31T00:07:37.595Z,969.59
2024-01-31T00:10:03.933Z,969.62
2024-01-31T00:12:30.389Z,969.64
2024-01-31T00:14:56.774Z,969.60
2024-01-31T00:17:23.138Z,969.61
2024-01-31T00:19:49.741Z,969.60
2024-01-31T00:22:16.124Z,969.63
2024-01-31T00:24:42.508Z,969.56
2024-01-31T00:27:08.882Z,969.54
2024-01-31T00:29:38.722Z,969.51
2024-01-31T00:32:01.847Z,969.53
2024-01-31T00:34:28.304Z,969.49
2024-01-31T00:36:54.740Z,969.50
2024-01-31T00:39:21.207Z,969.48
2024-01-31T00:41:47.643Z,969.47
2024-01-31T00:44:14.102Z,969.41
2024-01-31T00:46:40.567Z,969.48
2024-01-31T00:49:07.195Z,969.48
2024-01-31T00:51:33.387Z,969.47
2024-01-31T00:53:59.779Z,969.41
2024-01-31T00:56:26.154Z,969.46
2024-01-31T00:58:52.679Z,969.40
2024-01-31T01:01:19.132Z,969.45
2024-01-31T01:03:45.472Z,969.43
2024-01-31T01:06:11.900Z,969.48
2024-01-31T01:08:38.307Z,969.54
2024-01-31T01:11:04.762Z,969.46
2024-01-31T01:13:31.210Z,969.39
2024-01-31T01:15:57.655Z,969.42
2024-01-31T01:18:24.066Z,969.44
2024-01-31T01:20:50.486Z,969.38
2024-01-31T01:23:16.918Z,969.37
2024-01-31T01:25:43.479Z,969.39
2024-01-31T01:28:09.820Z,969.40
2024-01-31T01:30:36.166Z,969.39
2024-01-31T01:33:02.750Z,969.38
2024-01-31T01:35:29.075Z,969.34
2024-01-31T01:37:55.615Z,969.29
2024-01-31T01:40:22.085Z,969.33
2024-01-31T01:42:48.446Z,969.29
2024-01-31T01:45:14.808Z,969.22
2024-01-31T01:47:41.267Z,969.28
2024-01-31T01:50:07.700Z,969.27
2024-01-31T01:52:34.163Z,969.22
2024-01-31T01:55:00.481Z,969.31
2024-01-31T01:57:26.963Z,969.21
2024-01-31T01:59:53.402Z,969.24
2024-01-31T02:02:19.834Z,969.19
2024-01-31T02:04:46.281Z,969.21
2024-01-31T02:07:12.675Z,969.19
2024-01-31T02:09:38.981Z,969.16
2024-01-31T02:12:05.486Z,969.21
2024-01-31T02:14:31.822Z,969.20
2024-01-31T02:16:58.352Z,969.18
2024-01-31T02:19:24.738Z,969.12
2024-01-31T02:21:51.191Z,969.11
2024-01-31T02:24:17.637Z,969.04
2024-01-31T02:26:44.071Z,969.02
2024-01-31T02:29:10.490Z,968.92
2024-01-31T02:31:37.052Z,968.86
2024-01-31T02:34:03.598Z,968.94
2024-01-31T02:36:29.787Z,968.95
2024-01-31T02:38:56.135Z,968.96
2024-01-31T02:41:22.552Z,968.89
2024-01-31T02:43:48.915Z,968.96
2024-01-31T02:46:15.447Z,968.97
2024-01-31T02:48:41.963Z,969.02
2024-01-31T02:51:08.292Z,968.96
2024-01-31T02:53:34.638Z,968.92
2024-01-31T02:56:01.170Z,968.93
2024-01-31T02:58:27.621Z,968.90
2024-01-31T03:00:54.106Z,968.91
2024-01-31T03:03:20.421Z,968.93
2024-01-31T03:05:46.950Z,968.97
2024-01-31T03:08:13.201Z,968.98
2024-01-31T03:10:39.920Z,968.95
2024-01-31T03:13:06.234Z,968.90
2024-01-31T03:15:32.645Z,968.94
2024-01-31T03:17:59.052Z,968.91
2024-01-31T03:20:25.488Z,968.90
2024-01-31T03:22:51.929Z,968.84
2024-01-31T03:25:18.387Z,968.78
2024-01-31T03:27:44.786Z,968.79
2024-01-31T03:30:11.360Z,968.78
2024-01-31T03:32:37.996Z,968.83
2024-01-31T03:35:04.479Z,968.79
2024-01-31T03:37:30.887Z,968.82
2024-01-31T03:39:57.387Z,968.74
2024-01-31T03:42:23.751Z,968.79
2024-01-31T03:44:50.128Z,968.86
2024-01-31T03:47:16.508Z,968.83
2024-01-31T03:49:43.010Z,968.84
2024-01-31T03:52:09.396Z,968.84
2024-01-31T03:54:35.867Z,968.87
2024-01-31T03:57:02.297Z,968.89
2024-01-31T03:59:28.752Z,968.83
2024-01-31T04:01:55.286Z,968.92
2024-01-31T04:04:21.611Z,968.93
2024-01-31T04:06:47.924Z,968.88
2024-01-31T04:09:14.368Z,968.91
2024-01-31T04:11:40.785Z,969.00
2024-01-31T04:14:07.241Z,968.98
2024-01-31T04:16:33.721Z,969.03
2024-01-31T04:19:00.225Z,969.02
2024-01-31T04:21:26.520Z,969.00
2024-01-31T04:23:53.070Z,969.07
2024-01-31T04:26:19.403Z,969.02
2024-01-31T04:28:45.856Z,969.04
2024-01-31T04:31:12.328Z,969.03
2024-01-31T04:33:38.908Z,969.00
2024-01-31T04:36:05.269Z,968.93
2024-01-31T04:38:31.795Z,968.97
2024-01-31T04:40:58.150Z,968.92
2024-01-31T04:43:24.717Z,968.95
2024-01-31T04:45:51.056Z,969.01
2024-01-31T04:48:17.768Z,969.01
2024-01-31T04:50:43.993Z,969.03
2024-01-31T04:53:10.364Z,969.06
2024-01-31T04:55:36.830Z,969.12
2024-01-31T04:58:03.243Z,969.04
2024-01-31T05:00:29.667Z,968.91
2024-01-31T05:02:56.200Z,968.89
2024-01-31T05:05:22.645Z,968.94
2024-01-31T05:07:49.078Z,968.87
2024-01-31T05:10:15.505Z,968.96
2024-01-31T05:12:41.924Z,969.02
2024-01-31T05:15:08.317Z,968.96
2024-01-31T05:17:34.829Z,969.00
2024-01-31T05:20:01.390Z,968.99
2024-01-31T05:22:27.664Z,968.99
2024-01-31T05:24:53.979Z,969.07
2024-01-31T05:27:20.450Z,969.08
2024-01-31T05:29:46.803Z,969.07
2024-01-31T05:32:13.281Z,969.08
2024-01-31T05:34:39.689Z,969.06
2024-01-31T05:37:06.184Z,969.12
2024-01-31T05:39:32.513Z,969.18
2024-01-31T05:41:59.026Z,969.18
2024-01-31T05:44:25.414Z,969.21
2024-01-31T05:46:51.921Z,969.22
2024-01-31T05:49:18.467Z,969.26
2024-01-31T05:51:44.764Z,969.30
2024-01-31T05:54:11.194Z,969.31
2024-01-31T05:56:37.623Z,969.29
2024-01-31T05:59:03.972Z,969.25
2024-01-31T06:01:30.594Z,969.31
2024-01-31T06:03:56.997Z,969.41
2024-01-31T06:06:23.532Z,969.35
2024-01-31T06:08:49.823Z,969.40
2024-01-31T06:11:16.222Z,969.37
2024-01-31T06:13:42.626Z,969.32
2024-01-31T06:16:09.115Z,969.28
2024-01-31T06:18:35.706Z,969.29
2024-01-31T06:21:01.911Z,969.26
2024-01-31T06:23:28.230Z,969.30
2024-01-31T06:25:54.762Z,969.36
2024-01-31T06:28:21.256Z,969.46
2024-01-31T06:30:47.830Z,969.39
2024-01-31T06:33:14.332Z,969.36
2024-01-31T06:35:40.776Z,969.36
2024-01-31T06:38:07.184Z,969.38
2024-01-31T06:40:33.712Z,969.41
2024-01-31T06:43:00.081Z,969.41
2024-01-31T06:45:26.499Z,969.47
2024-01-31T06:47:52.957Z,969.36
2024-01-31T06:50:19.614Z,969.37
2024-01-31T06:52:45.847Z,969.36
2024-01-31T06:55:12.191Z,969.41
2024-01-31T06:57:40.744Z,969.40
2024-01-31T07:00:07.245Z,969.41
2024-01-31T07:02:33.669Z,969.42
2024-01-31T07:05:00.338Z,969.41
2024-01-31T07:07:26.700Z,969.37
2024-01-31T07:09:53.078Z,969.36
2024-01-31T07:12:19.442Z,969.40
2024-01-31T07:14:45.924Z,969.38
2024-01-31T07:17:12.478Z,969.37
2024-01-31T07:19:39.069Z,969.45
2024-01-31T07:22:05.415Z,969.36
2024-01-31T07:24:31.883Z,969.36
2024-01-31T07:26:58.309Z,969.38
2024-01-31T07:29:24.774Z,969.29
2024-01-31T07:31:51.227Z,969.31
2024-01-31T07:34:17.796Z,969.28
2024-01-31T07:36:43.995Z,969.29
2024-01-31T07:39:10.407Z,969.25
2024-01-31T07:41:36.894Z,969.31
2024-01-31T07:44:03.326Z,969.25
2024-01-31T07:46:29.692Z,969.28
2024-01-31T07:48:56.227Z,969.22
2024-01-31T07:51:22.580Z,969.31
2024-01-31T07:53:49.115Z,969.35
2024-01-31T07:56:15.618Z,969.30
2024-01-31T07:58:42.099Z,969.24
2024-01-31T08:01:09.545Z,969.26
2024-01-31T08:03:34.797Z,969.20
2024-01-31T08:06:01.287Z,969.22
2024-01-31T08:08:27.670Z,969.25
2024-01-31T08:10:54.174Z,969.23
2024-01-31T08:13:20.592Z,969.24
2024-01-31T08:15:46.926Z,969.14
2024-01-31T08:18:13.423Z,969.21
2024-01-31T08:20:39.882Z,969.17
2024-01-31T08:23:06.229Z,969.12
2024-01-31T08:25:32.681Z,969.16
2024-01-31T08:27:59.161Z,969.15
2024-01-31T08:30:25.730Z,969.12
2024-01-31T08:32:52.179Z,969.09
2024-01-31T08:35:18.530Z,969.08
2024-01-31T08:37:45.325Z,969.02
2024-01-31T08:40:12.558Z,969.03
2024-01-31T08:42:38.033Z,968.96
2024-01-31T08:45:04.469Z,968.98
2024-01-31T08:47:30.818Z,968.93
2024-01-31T08:49:57.424Z,968.89
2024-01-31T08:52:23.750Z,968.94
2024-01-31T08:54:50.263Z,968.86
2024-01-31T08:57:18.817Z,968.83
2024-01-31T08:59:43.025Z,968.78
2024-01-31T09:02:09.450Z,968.77
2024-01-31T09:04:35.999Z,968.78
2024-01-31T09:07:02.481Z,968.71
2024-01-31T09:09:28.811Z,968.61
2024-01-31T09:11:55.236Z,968.61
2024-01-31T09:14:21.660Z,968.55
2024-01-31T09:16:48.063Z,968.59
2024-01-31T09:19:14.640Z,968.53
2024-01-31T09:21:40.976Z,968.51
2024-01-31T09:24:07.453Z,968.49
2024-01-31T09:26:33.833Z,968.42
2024-01-31T09:29:00.260Z,968.47
2024-01-31T09:31:26.765Z,968.35
2024-01-31T09:33:53.320Z,968.33
2024-01-31T09:36:19.597Z,968.34
2024-01-31T09:38:46.301Z,968.25
2024-01-31T09:41:12.696Z,968.17
2024-01-31T09:43:39.295Z,968.18
2024-01-31T09:46:06.676Z,968.11
2024-01-31T09:48:32.147Z,968.04
2024-01-31T09:50:58.419Z,968.04
2024-01-31T09:53:24.832Z,968.02
2024-01-31T09:55:51.274Z,967.94
2024-01-31T09:58:17.705Z,967.99
2024-01-31T10:00:44.116Z,967.89
2024-01-31T10:03:10.679Z,967.79
2024-01-31T10:05:36.948Z,967.82
2024-01-31T10:08:03.433Z,967.79
2024-01-31T10:10:31.890Z,967.77
2024-01-31T10:12:56.366Z,967.71
2024-01-31T10:15:22.738Z,967.68
2024-01-31T10:17:49.253Z,967.55
2024-01-31T10:20:15.789Z,967.56
2024-01-31T10:22:42.263Z,967.58
2024-01-31T10:25:08.613Z,967.52
2024-01-31T10:27:34.863Z,967.49
2024-01-31T10:30:01.218Z,967.39
2024-01-31T10:32:27.805Z,967.33
2024-01-31T10:35:11.478Z,967.41
2024-01-31T10:39:47.383Z,967.29
2024-01-31T10:42:13.710Z,967.22
2024-01-31T10:44:40.124Z,967.15
2024-01-31T10:47:06.540Z,967.10
2024-01-31T10:49:33.040Z,967.09
2024-01-31T10:51:59.389Z,967.06
2024-01-31T10:54:25.891Z,966.94
2024-01-31T10:56:52.274Z,966.95
2024-01-31T10:59:18.664Z,966.90
2024-01-31T11:01:45.135Z,966.78
2024-01-31T11:04:11.822Z,966.84
2024-01-31T11:06:38.522Z,966.74
2024-01-31T11:09:04.733Z,966.70
2024-01-31T11:11:31.191Z,966.63
2024-01-31T11:13:57.585Z,966.67
2024-01-31T11:16:23.944Z,966.65
2024-01-31T11:18:50.393Z,966.59
2024-01-31T11:21:16.800Z,966.57
2024-01-31T11:23:43.253Z,966.54
2024-01-31T11:26:09.779Z,966.49
2024-01-31T11:28:36.190Z,966.43
2024-01-31T11:31:03.865Z,966.43
2024-01-31T11:33:30.528Z,966.40
2024-01-31T11:35:56.908Z,966.39
2024-01-31T11:38:23.352Z,966.29
2024-01-31T11:40:49.718Z,966.24
2024-01-31T11:43:16.153Z,966.28
2024-01-31T11:45:42.838Z,966.24
2024-01-31T11:48:09.398Z,966.17
2024-01-31T11:50:35.816Z,966.11
2024-01-31T11:53:02.174Z,966.09
2024-01-31T11:55:28.651Z,966.09
2024-01-31T11:57:56.073Z,966.02
2024-01-31T12:00:22.647Z,966.03
2024-01-31T12:02:49.247Z,966.01
2024-01-31T12:05:15.579Z,965.99
2024-01-31T12:07:41.926Z,965.95
2024-01-31T12:10:08.460Z,965.97
2024-01-31T12:12:34.916Z,965.96
2024-01-31T12:15:01.525Z,965.99
2024-01-31T12:17:27.907Z,965.93
2024-01-31T12:19:54.439Z,965.93
2024-01-31T12:22:20.843Z,965.87
2024-01-31T12:24:47.358Z,965.85
2024-01-31T12:27:13.704Z,965.78
2024-01-31T12:29:40.734Z,965.82
2024-01-31T12:32:06.551Z,965.79
2024-01-31T12:34:33.044Z,965.74
2024-01-31T12:36:59.362Z,965.71
2024-01-31T12:39:26.064Z,965.72
2024-01-31T12:41:52.516Z,965.67
2024-01-31T12:44:19.156Z,965.76
2024-01-31T12:46:45.553Z,965.69
2024-01-31T12:49:12.176Z,965.72
2024-01-31T12:51:38.534Z,965.72
2024-01-31T12:54:05.213Z,965.64
2024-01-31T12:56:31.460Z,965.63
2024-01-31T12:58:58.457Z,965.63
2024-01-31T13:01:25.109Z,965.65
2024-01-31T13:03:51.588Z,965.64
2024-01-31T13:06:18.279Z,965.72
2024-01-31T13:08:44.550Z,965.61
2024-01-31T13:11:10.914Z,965.59
2024-01-31T13:13:37.475Z,965.62
2024-01-31T13:16:04.052Z,965.63
2024-01-31T13:18:30.697Z,965.54
2024-01-31T13:20:57.112Z,965.52
2024-01-31T13:23:23.734Z,965.54
2024-01-31T13:25:50.124Z,965.51
2024-01-31T13:28:16.564Z,965.53
2024-01-31T13:30:42.998Z,965.45
2024-01-31T13:33:09.697Z,965.49
2024-01-31T13:35:36.004Z,965.46
2024-01-31T13:38:02.494Z,965.44
2024-01-31T13:40:28.934Z,965.37
2024-01-31T13:42:55.372Z,965.40
2024-01-31T13:45:21.901Z,965.33
2024-01-31T13:47:48.514Z,965.32
2024-01-31T13:50:14.883Z,965.34
2024-01-31T13:52:41.440Z,965.29
2024-01-31T13:55:10.407Z,965.38
2024-01-31T13:57:37.076Z,965.32
2024-01-31T14:00:03.624Z,965.34
2024-01-31T14:02:30.212Z,965.37
2024-01-31T14:04:56.547Z,965.35
2024-01-31T14:07:23.113Z,965.26
2024-01-31T14:09:49.465Z,965.19
2024-01-31T14:12:15.954Z,965.21
2024-01-31T14:14:42.297Z,965.18
2024-01-31T14:17:09.161Z,965.11
2024-01-31T14:19:35.576Z,965.09
2024-01-31T14:22:12.780Z,965.09
2024-01-31T14:24:29.822Z,965.08
2024-01-31T14:26:55.092Z,965.05
2024-01-31T14:29:21.671Z,965.05
2024-01-31T14:31:48.073Z,965.12
2024-01-31T14:34:14.598Z,965.04
2024-01-31T14:36:41.123Z,965.09
2024-01-31T14:39:07.658Z,965.10
2024-01-31T14:41:34.127Z,965.04
2024-01-31T14:44:00.536Z,965.06
2024-01-31T14:46:27.051Z,965.00
2024-01-31T14:48:53.804Z,965.00
2024-01-31T14:51:19.989Z,964.97
2024-01-31T14:53:46.417Z,964.97
2024-01-31T14:56:14.030Z,964.96
2024-01-31T14:58:40.384Z,964.92
2024-01-31T15:01:06.828Z,964.98
2024-01-31T15:03:33.217Z,965.17
2024-01-31T15:06:00.699Z,965.02
2024-01-31T15:08:26.939Z,964.99
2024-01-31T15:10:53.378Z,965.07
2024-01-31T15:13:19.809Z,965.03
2024-01-31T15:15:46.327Z,965.07
2024-01-31T15:18:12.931Z,965.07
2024-01-31T15:20:39.332Z,965.04
2024-01-31T15:23:05.675Z,965.08
2024-01-31T15:25:32.296Z,965.03
2024-01-31T15:27:58.574Z,965.09
2024-01-31T15:30:25.131Z,965.14
2024-01-31T15:32:51.529Z,965.10
2024-01-31T15:35:17.844Z,965.16
2024-01-31T15:37:44.203Z,965.15
2024-01-31T15:40:10.758Z,965.12
2024-01-31T15:42:37.133Z,965.13
2024-01-31T15:45:03.649Z,965.13
2024-01-31T15:47:30.290Z,965.13
2024-01-31T15:49:56.732Z,965.08
2024-01-31T15:52:23.114Z,965.12
2024-01-31T15:54:49.659Z,965.16
2024-01-31T15:57:16.047Z,965.12
2024-01-31T15:59:42.571Z,965.15
2024-01-31T16:02:09.015Z,965.08
2024-01-31T16:04:35.465Z,965.11
2024-01-31T16:07:01.932Z,965.06
2024-01-31T16:09:28.327Z,965.08
2024-01-31T16:11:54.822Z,965.08
2024-01-31T16:14:21.192Z,965.08
2024-01-31T16:16:47.611Z,965.08
2024-01-31T16:19:14.098Z,965.10
2024-01-31T16:21:43.428Z,965.10
2024-01-31T16:24:06.973Z,965.10
2024-01-31T16:26:33.312Z,965.18
2024-01-31T16:28:59.789Z,965.16
2024-01-31T16:31:26.318Z,965.16
2024-01-31T16:33:52.808Z,965.18
2024-01-31T16:36:19.102Z,965.12
2024-01-31T16:38:45.521Z,965.17
2024-01-31T16:41:11.883Z,965.10
2024-01-31T16:43:38.277Z,965.11
2024-01-31T16:46:04.700Z,965.14
2024-01-31T16:48:31.186Z,965.13
2024-01-31T16:50:57.696Z,965.17
2024-01-31T16:53:24.177Z,965.19
2024-01-31T16:55:50.595Z,965.15
2024-01-31T16:58:16.983Z,965.22
2024-01-31T17:00:43.503Z,965.29
2024-01-31T17:03:10.083Z,965.27
2024-01-31T17:05:36.719Z,965.34
2024-01-31T17:08:03.312Z,965.34
2024-01-31T17:10:29.935Z,965.35
2024-01-31T17:12:56.716Z,965.38
2024-01-31T17:15:23.348Z,965.37
2024-01-31T17:17:50.194Z,965.30
2024-01-31T17:20:16.698Z,965.33
2024-01-31T17:22:43.485Z,965.34
2024-01-31T17:25:10.085Z,965.25
2024-01-31T17:27:36.824Z,965.30
2024-01-31T17:30:03.439Z,965.36
2024-01-31T17:32:30.209Z,965.30
2024-01-31T17:34:56.858Z,965.33
2024-01-31T17:37:23.485Z,965.33
2024-01-31T17:39:50.255Z,965.37
2024-01-31T17:42:16.964Z,965.40
2024-01-31T17:44:43.730Z,965.38
2024-01-31T17:47:10.235Z,965.31
2024-01-31T17:49:36.884Z,965.34
2024-01-31T17:52:03.495Z,965.35
2024-01-31T17:54:30.022Z,965.36
2024-01-31T17:56:56.856Z,965.32
2024-01-31T17:59:23.407Z,965.38
2024-01-31T18:01:50.034Z,965.39
2024-01-31T18:04:16.745Z,965.39
2024-01-31T18:06:43.347Z,965.42
2024-01-31T18:09:11.496Z,965.42
2024-01-31T18:11:36.870Z,965.40
2024-01-31T18:14:03.287Z,965.38
2024-01-31T18:16:29.763Z,965.29
2024-01-31T18:18:56.353Z,965.30
2024-01-31T18:21:22.860Z,965.26
2024-01-31T18:23:49.434Z,965.32
2024-01-31T18:26:15.845Z,965.30
2024-01-31T18:28:42.404Z,965.29
2024-01-31T18:31:08.924Z,965.25
2024-01-31T18:33:35.868Z,965.26
2024-01-31T18:36:02.184Z,965.26
2024-01-31T18:38:28.824Z,965.25
2024-01-31T18:40:55.438Z,965.27
2024-01-31T18:43:22.068Z,965.35
2024-01-31T18:45:48.752Z,965.24
2024-01-31T18:48:15.493Z,965.32
2024-01-31T18:50:42.008Z,965.30
2024-01-31T18:53:08.713Z,965.29
2024-01-31T18:55:35.488Z,965.27
2024-01-31T18:58:02.096Z,965.28
2024-01-31T19:00:28.614Z,965.30
2024-01-31T19:02:55.085Z,965.24
2024-01-31T19:05:21.354Z,965.31
2024-01-31T19:07:47.884Z,965.31
2024-01-31T19:10:14.264Z,965.28
2024-01-31T19:12:40.733Z,965.29
2024-01-31T19:15:07.207Z,965.33
2024-01-31T19:17:39.441Z,965.34
2024-01-31T19:19:59.973Z,965.31
2024-01-31T19:22:26.502Z,965.28
2024-01-31T19:24:52.831Z,965.26
2024-01-31T19:27:19.267Z,965.23
2024-01-31T19:29:45.812Z,965.17
2024-01-31T19:32:12.313Z,965.19
2024-01-31T19:34:38.942Z,965.23
2024-01-31T19:37:05.379Z,965.22
2024-01-31T19:39:31.728Z,965.24
2024-01-31T19:41:58.272Z,965.25
2024-01-31T19:44:24.631Z,965.16
2024-01-31T19:46:51.104Z,965.17
2024-01-31T19:49:17.570Z,965.13
2024-01-31T19:51:43.978Z,965.17
2024-01-31T19:54:13.000Z,965.14
2024-01-31T19:56:36.953Z,965.17
2024-01-31T19:59:03.271Z,965.11
2024-01-31T20:01:29.808Z,965.12
2024-01-31T20:03:56.166Z,965.10
2024-01-31T20:06:22.795Z,965.02
2024-01-31T20:08:49.126Z,965.01
2024-01-31T20:11:15.596Z,964.99
2024-01-31T20:13:42.017Z,964.97
2024-01-31T20:16:08.397Z,965.04
2024-01-31T20:18:34.962Z,965.01
2024-01-31T20:21:01.394Z,965.00
2024-01-31T20:23:27.719Z,965.02
2024-01-31T20:25:54.258Z,964.94
2024-01-31T20:28:20.603Z,964.95
2024-01-31T20:30:47.098Z,964.90
2024-01-31T20:33:13.564Z,964.93
2024-01-31T20:35:39.992Z,964.93
2024-01-31T20:38:06.361Z,964.97
2024-01-31T20:40:32.844Z,964.98
2024-01-31T20:42:59.081Z,964.95
2024-01-31T20:45:25.664Z,964.84
2024-01-31T20:47:52.236Z,964.88
2024-01-31T20:50:18.498Z,964.84
2024-01-31T20:52:44.913Z,964.81
2024-01-31T20:55:11.342Z,964.80
2024-01-31T20:57:39.855Z,964.84
2024-01-31T21:00:06.368Z,964.77
2024-01-31T21:02:32.901Z,964.76
2024-01-31T21:04:59.051Z,964.76
2024-01-31T21:07:25.450Z,964.72
2024-01-31T21:09:51.884Z,964.82
2024-01-31T21:12:18.412Z,964.88
2024-01-31T21:14:44.809Z,964.77
2024-01-31T21:17:11.131Z,964.82
2024-01-31T21:19:37.738Z,964.78
2024-01-31T21:22:03.958Z,964.82
2024-01-31T21:24:30.380Z,964.82
2024-01-31T21:26:56.985Z,964.78
2024-01-31T21:29:23.361Z,964.78
2024-01-31T21:31:49.702Z,964.82
2024-01-31T21:34:16.348Z,964.72
2024-01-31T21:36:42.680Z,964.77
2024-01-31T21:39:09.244Z,964.71
2024-01-31T21:41:35.576Z,964.71
2024-01-31T21:44:02.211Z,964.72
2024-01-31T21:46:28.572Z,964.71
2024-01-31T21:48:55.332Z,964.67
2024-01-31T21:51:21.440Z,964.68
2024-01-31T21:53:47.914Z,964.63
2024-01-31T21:56:14.306Z,964.66
2024-01-31T21:58:40.734Z,964.64
2024-01-31T22:01:07.247Z,964.64
2024-01-31T22:03:46.258Z,964.69
2024-01-31T22:05:59.999Z,964.63
2024-01-31T22:08:26.483Z,964.63
2024-01-31T22:10:52.832Z,964.56
2024-01-31T22:13:19.251Z,964.47
2024-01-31T22:15:45.600Z,964.52
2024-01-31T22:18:12.282Z,964.57
2024-01-31T22:20:38.669Z,964.57
2024-01-31T22:23:05.216Z,964.55
2024-01-31T22:25:31.680Z,964.57
2024-01-31T22:27:58.045Z,964.52
2024-01-31T22:30:24.469Z,964.49
2024-01-31T22:32:51.044Z,964.50
2024-01-31T22:35:17.315Z,964.50
2024-01-31T22:37:43.829Z,964.57
2024-01-31T22:40:10.300Z,964.59
2024-01-31T22:42:36.796Z,964.56
2024-01-31T22:45:03.397Z,964.56
2024-01-31T22:47:29.869Z,964.48
2024-01-31T22:49:56.369Z,964.47
2024-01-31T22:52:22.714Z,964.38
2024-01-31T22:54:57.177Z,964.42
2024-01-31T22:57:15.664Z,964.41
2024-01-31T22:59:41.910Z,964.44
2024-01-31T23:02:08.310Z,964.42
2024-01-31T23:04:34.709Z,964.42
2024-01-31T23:07:01.297Z,964.38
2024-01-31T23:09:27.545Z,964.43
2024-01-31T23:11:54.057Z,964.49
2024-01-31T23:14:20.367Z,964.43
2024-01-31T23:16:46.921Z,964.38
2024-01-31T23:19:13.489Z,964.36
2024-01-31T23:21:39.756Z,964.28
2024-01-31T23:24:06.179Z,964.32
2024-01-31T23:26:32.656Z,964.26
2024-01-31T23:28:58.970Z,964.27
2024-01-31T23:31:25.478Z,964.15
2024-01-31T23:33:52.216Z,964.26
2024-01-31T23:36:18.341Z,964.26
2024-01-31T23:38:44.737Z,964.20
2024-01-31T23:41:11.105Z,964.18
2024-01-31T23:43:37.541Z,964.22
2024-01-31T23:46:03.991Z,964.26
2024-01-31T23:48:30.466Z,964.21
2024-01-31T23:50:56.863Z,964.21
2024-01-31T23:53:23.151Z,964.16
2024-01-31T23:55:49.617Z,964.08
2024-01-31T23:58:16.046Z,964.08
